sensor_id;sensor_type;location;lat;lon;timestamp;P1;durP1;ratioP1;P2;durP2;ratioP2
3427;SDS011;1727;42.624;23.406;2023-02-15T00:01:32;54.50;;;27.47;;
3427;SDS011;1727;42.624;23.406;2023-02-15T00:03:59;49.17;;;29.17;;
3427;SDS011;1727;42.624;23.406;2023-02-15T00:06:26;58.20;;;29.07;;
3427;SDS011;1727;42.624;23.406;2023-02-15T00:08:53;49.20;;;27.87;;
3427;SDS011;1727;42.624;23.406;2023-02-15T00:11:21;42.47;;;24.90;;
3427;SDS011;1727;42.624;23.406;2023-02-15T00:14:02;49.20;;;26.83;;
3427;SDS011;1727;42.624;23.406;2023-02-15T00:16:30;45.67;;;26.20;;
3427;SDS011;1727;42.624;23.406;2023-02-15T00:18:57;46.27;;;26.67;;
3427;SDS011;1727;42.624;23.406;2023-02-15T00:21:27;44.60;;;26.93;;
3427;SDS011;1727;42.624;23.406;2023-02-15T00:23:54;58.57;;;29.17;;
3427;SDS011;1727;42.624;23.406;2023-02-15T00:26:30;54.80;;;29.53;;
3427;SDS011;1727;42.624;23.406;2023-02-15T00:28:57;48.57;;;27.93;;
3427;SDS011;1727;42.624;23.406;2023-02-15T00:31:25;52.97;;;27.50;;
3427;SDS011;1727;42.624;23.406;2023-02-15T00:33:52;44.53;;;27.10;;
3427;SDS011;1727;42.624;23.406;2023-02-15T00:36:19;41.97;;;24.90;;
3427;SDS011;1727;42.624;23.406;2023-02-15T00:38:46;47.50;;;29.10;;
3427;SDS011;1727;42.624;23.406;2023-02-15T00:41:13;44.80;;;25.90;;
3427;SDS011;1727;42.624;23.406;2023-02-15T00:43:41;47.77;;;26.33;;
3427;SDS011;1727;42.624;23.406;2023-02-15T00:46:08;47.00;;;26.33;;
3427;SDS011;1727;42.624;23.406;2023-02-15T00:48:34;42.20;;;25.53;;
3427;SDS011;1727;42.624;23.406;2023-02-15T00:51:01;50.30;;;27.83;;
3427;SDS011;1727;42.624;23.406;2023-02-15T00:53:28;44.13;;;25.93;;
3427;SDS011;1727;42.624;23.406;2023-02-15T00:55:55;48.30;;;27.57;;
3427;SDS011;1727;42.624;23.406;2023-02-15T00:58:22;51.07;;;27.97;;
3427;SDS011;1727;42.624;23.406;2023-02-15T01:00:50;41.27;;;24.97;;
3427;SDS011;1727;42.624;23.406;2023-02-15T01:03:19;54.97;;;28.20;;
3427;SDS011;1727;42.624;23.406;2023-02-15T01:05:46;48.97;;;25.50;;
3427;SDS011;1727;42.624;23.406;2023-02-15T01:08:14;46.13;;;26.63;;
3427;SDS011;1727;42.624;23.406;2023-02-15T01:10:41;45.60;;;25.80;;
3427;SDS011;1727;42.624;23.406;2023-02-15T01:13:17;48.27;;;26.33;;
3427;SDS011;1727;42.624;23.406;2023-02-15T01:15:44;40.57;;;23.90;;
3427;SDS011;1727;42.624;23.406;2023-02-15T01:18:12;43.27;;;24.80;;
3427;SDS011;1727;42.624;23.406;2023-02-15T01:20:39;49.20;;;26.50;;
3427;SDS011;1727;42.624;23.406;2023-02-15T01:23:06;44.57;;;25.77;;
3427;SDS011;1727;42.624;23.406;2023-02-15T01:25:34;42.70;;;26.87;;
3427;SDS011;1727;42.624;23.406;2023-02-15T01:28:01;43.20;;;26.13;;
3427;SDS011;1727;42.624;23.406;2023-02-15T01:30:29;47.00;;;27.00;;
3427;SDS011;1727;42.624;23.406;2023-02-15T01:32:55;49.37;;;26.87;;
3427;SDS011;1727;42.624;23.406;2023-02-15T01:35:24;46.40;;;25.50;;
3427;SDS011;1727;42.624;23.406;2023-02-15T01:37:51;45.47;;;26.13;;
3427;SDS011;1727;42.624;23.406;2023-02-15T01:40:18;40.77;;;24.77;;
3427;SDS011;1727;42.624;23.406;2023-02-15T01:42:45;50.13;;;27.20;;
3427;SDS011;1727;42.624;23.406;2023-02-15T01:45:18;47.87;;;25.63;;
3427;SDS011;1727;42.624;23.406;2023-02-15T01:47:50;50.20;;;25.80;;
3427;SDS011;1727;42.624;23.406;2023-02-15T01:50:25;47.33;;;26.70;;
3427;SDS011;1727;42.624;23.406;2023-02-15T01:52:57;46.87;;;26.53;;
3427;SDS011;1727;42.624;23.406;2023-02-15T01:55:30;44.27;;;25.60;;
3427;SDS011;1727;42.624;23.406;2023-02-15T01:58:10;51.40;;;26.77;;
3427;SDS011;1727;42.624;23.406;2023-02-15T02:00:37;47.70;;;25.80;;
3427;SDS011;1727;42.624;23.406;2023-02-15T02:03:14;38.83;;;23.80;;
3427;SDS011;1727;42.624;23.406;2023-02-15T02:05:42;46.53;;;26.37;;
3427;SDS011;1727;42.624;23.406;2023-02-15T02:08:09;45.20;;;27.30;;
3427;SDS011;1727;42.624;23.406;2023-02-15T02:10:36;50.00;;;26.00;;
3427;SDS011;1727;42.624;23.406;2023-02-15T02:13:04;49.10;;;26.27;;
3427;SDS011;1727;42.624;23.406;2023-02-15T02:15:39;44.70;;;25.30;;
3427;SDS011;1727;42.624;23.406;2023-02-15T02:18:22;43.30;;;25.07;;
3427;SDS011;1727;42.624;23.406;2023-02-15T02:21:08;42.27;;;26.40;;
3427;SDS011;1727;42.624;23.406;2023-02-15T02:33:02;44.70;;;25.80;;
3427;SDS011;1727;42.624;23.406;2023-02-15T02:35:48;42.70;;;26.23;;
3427;SDS011;1727;42.624;23.406;2023-02-15T02:38:24;48.83;;;24.97;;
3427;SDS011;1727;42.624;23.406;2023-02-15T02:40:57;48.13;;;26.63;;
3427;SDS011;1727;42.624;23.406;2023-02-15T02:43:33;42.80;;;24.70;;
3427;SDS011;1727;42.624;23.406;2023-02-15T02:46:05;45.03;;;26.00;;
3427;SDS011;1727;42.624;23.406;2023-02-15T02:48:37;46.27;;;25.37;;
3427;SDS011;1727;42.624;23.406;2023-02-15T02:51:05;46.93;;;25.47;;
3427;SDS011;1727;42.624;23.406;2023-02-15T02:53:31;49.53;;;25.70;;
3427;SDS011;1727;42.624;23.406;2023-02-15T02:56:02;59.10;;;26.20;;
3427;SDS011;1727;42.624;23.406;2023-02-15T02:58:33;38.00;;;23.67;;
3427;SDS011;1727;42.624;23.406;2023-02-15T03:01:06;47.00;;;23.57;;
3427;SDS011;1727;42.624;23.406;2023-02-15T03:03:41;38.07;;;24.10;;
3427;SDS011;1727;42.624;23.406;2023-02-15T03:06:12;46.43;;;23.37;;
3427;SDS011;1727;42.624;23.406;2023-02-15T03:08:50;34.60;;;22.60;;
3427;SDS011;1727;42.624;23.406;2023-02-15T03:11:20;36.83;;;22.90;;
3427;SDS011;1727;42.624;23.406;2023-02-15T03:13:47;32.23;;;20.50;;
3427;SDS011;1727;42.624;23.406;2023-02-15T03:16:15;51.73;;;23.57;;
3427;SDS011;1727;42.624;23.406;2023-02-15T03:18:54;40.83;;;23.20;;
3427;SDS011;1727;42.624;23.406;2023-02-15T03:21:25;43.17;;;24.43;;
3427;SDS011;1727;42.624;23.406;2023-02-15T03:24:00;43.63;;;24.10;;
3427;SDS011;1727;42.624;23.406;2023-02-15T03:26:34;39.73;;;23.83;;
3427;SDS011;1727;42.624;23.406;2023-02-15T03:29:02;40.83;;;22.00;;
3427;SDS011;1727;42.624;23.406;2023-02-15T03:31:33;42.97;;;23.83;;
3427;SDS011;1727;42.624;23.406;2023-02-15T03:34:07;39.47;;;23.30;;
3427;SDS011;1727;42.624;23.406;2023-02-15T03:36:39;43.40;;;24.43;;
3427;SDS011;1727;42.624;23.406;2023-02-15T03:39:13;37.70;;;22.67;;
3427;SDS011;1727;42.624;23.406;2023-02-15T03:41:46;37.40;;;22.90;;
3427;SDS011;1727;42.624;23.406;2023-02-15T03:44:23;33.80;;;20.97;;
3427;SDS011;1727;42.624;23.406;2023-02-15T03:46:55;43.90;;;23.00;;
3427;SDS011;1727;42.624;23.406;2023-02-15T03:49:30;42.40;;;23.83;;
3427;SDS011;1727;42.624;23.406;2023-02-15T03:52:04;41.37;;;20.97;;
3427;SDS011;1727;42.624;23.406;2023-02-15T03:54:33;39.00;;;21.87;;
3427;SDS011;1727;42.624;23.406;2023-02-15T03:57:15;37.77;;;21.70;;
3427;SDS011;1727;42.624;23.406;2023-02-15T04:00:03;39.03;;;24.30;;
3427;SDS011;1727;42.624;23.406;2023-02-15T04:02:56;40.13;;;22.87;;
3427;SDS011;1727;42.624;23.406;2023-02-15T04:05:35;39.60;;;23.17;;
3427;SDS011;1727;42.624;23.406;2023-02-15T04:08:02;41.80;;;22.20;;
3427;SDS011;1727;42.624;23.406;2023-02-15T04:10:29;40.33;;;22.67;;
3427;SDS011;1727;42.624;23.406;2023-02-15T04:13:13;47.90;;;25.33;;
3427;SDS011;1727;42.624;23.406;2023-02-15T04:15:40;38.77;;;24.13;;
3427;SDS011;1727;42.624;23.406;2023-02-15T04:18:24;43.47;;;24.57;;
3427;SDS011;1727;42.624;23.406;2023-02-15T04:21:09;43.00;;;23.60;;
3427;SDS011;1727;42.624;23.406;2023-02-15T04:23:53;42.47;;;25.43;;
3427;SDS011;1727;42.624;23.406;2023-02-15T04:26:37;43.40;;;22.90;;
3427;SDS011;1727;42.624;23.406;2023-02-15T04:29:04;39.37;;;23.27;;
3427;SDS011;1727;42.624;23.406;2023-02-15T04:31:31;36.50;;;21.90;;
3427;SDS011;1727;42.624;23.406;2023-02-15T04:33:58;44.83;;;24.87;;
3427;SDS011;1727;42.624;23.406;2023-02-15T04:36:26;39.77;;;22.10;;
3427;SDS011;1727;42.624;23.406;2023-02-15T04:38:52;42.40;;;23.90;;
3427;SDS011;1727;42.624;23.406;2023-02-15T04:41:19;38.17;;;23.00;;
3427;SDS011;1727;42.624;23.406;2023-02-15T04:43:46;39.83;;;23.57;;
3427;SDS011;1727;42.624;23.406;2023-02-15T04:46:13;45.30;;;24.80;;
3427;SDS011;1727;42.624;23.406;2023-02-15T04:48:39;31.23;;;20.50;;
3427;SDS011;1727;42.624;23.406;2023-02-15T04:51:06;41.70;;;23.70;;
3427;SDS011;1727;42.624;23.406;2023-02-15T04:53:35;36.07;;;21.93;;
3427;SDS011;1727;42.624;23.406;2023-02-15T04:56:02;41.03;;;24.50;;
3427;SDS011;1727;42.624;23.406;2023-02-15T04:58:29;45.20;;;22.67;;
3427;SDS011;1727;42.624;23.406;2023-02-15T05:00:56;45.27;;;22.97;;
3427;SDS011;1727;42.624;23.406;2023-02-15T05:03:23;42.28;;;26.60;;
3427;SDS011;1727;42.624;23.406;2023-02-15T05:05:50;37.27;;;25.10;;
3427;SDS011;1727;42.624;23.406;2023-02-15T05:08:17;44.13;;;25.37;;
3427;SDS011;1727;42.624;23.406;2023-02-15T05:10:47;37.00;;;21.53;;
3427;SDS011;1727;42.624;23.406;2023-02-15T05:13:14;42.47;;;23.63;;
3427;SDS011;1727;42.624;23.406;2023-02-15T05:15:40;42.70;;;22.03;;
3427;SDS011;1727;42.624;23.406;2023-02-15T05:18:07;36.67;;;20.53;;
3427;SDS011;1727;42.624;23.406;2023-02-15T05:20:34;51.03;;;27.90;;
3427;SDS011;1727;42.624;23.406;2023-02-15T05:23:01;39.90;;;22.90;;
3427;SDS011;1727;42.624;23.406;2023-02-15T05:25:28;45.83;;;23.40;;
3427;SDS011;1727;42.624;23.406;2023-02-15T05:28:13;44.70;;;24.70;;
3427;SDS011;1727;42.624;23.406;2023-02-15T05:30:45;45.50;;;23.80;;
3427;SDS011;1727;42.624;23.406;2023-02-15T05:33:12;53.00;;;23.50;;
3427;SDS011;1727;42.624;23.406;2023-02-15T05:35:39;50.37;;;26.20;;
3427;SDS011;1727;42.624;23.406;2023-02-15T05:38:06;44.93;;;25.10;;
3427;SDS011;1727;42.624;23.406;2023-02-15T05:40:33;38.10;;;23.40;;
3427;SDS011;1727;42.624;23.406;2023-02-15T05:43:00;38.90;;;24.20;;
3427;SDS011;1727;42.624;23.406;2023-02-15T05:45:28;40.07;;;23.10;;
3427;SDS011;1727;42.624;23.406;2023-02-15T05:47:55;43.23;;;24.60;;
3427;SDS011;1727;42.624;23.406;2023-02-15T05:50:23;47.57;;;25.07;;
3427;SDS011;1727;42.624;23.406;2023-02-15T05:52:50;57.63;;;31.37;;
3427;SDS011;1727;42.624;23.406;2023-02-15T05:55:17;56.10;;;30.70;;
3427;SDS011;1727;42.624;23.406;2023-02-15T05:57:44;42.07;;;25.53;;
3427;SDS011;1727;42.624;23.406;2023-02-15T06:00:11;43.60;;;25.60;;
3427;SDS011;1727;42.624;23.406;2023-02-15T06:02:40;49.00;;;29.20;;
3427;SDS011;1727;42.624;23.406;2023-02-15T06:05:07;44.40;;;25.10;;
3427;SDS011;1727;42.624;23.406;2023-02-15T06:07:34;43.80;;;25.67;;
3427;SDS011;1727;42.624;23.406;2023-02-15T06:10:01;40.20;;;22.43;;
3427;SDS011;1727;42.624;23.406;2023-02-15T06:12:29;45.10;;;25.90;;
3427;SDS011;1727;42.624;23.406;2023-02-15T06:15:00;41.97;;;23.47;;
3427;SDS011;1727;42.624;23.406;2023-02-15T06:17:32;34.03;;;24.27;;
3427;SDS011;1727;42.624;23.406;2023-02-15T06:20:00;37.30;;;23.30;;
3427;SDS011;1727;42.624;23.406;2023-02-15T06:22:27;39.70;;;23.93;;
3427;SDS011;1727;42.624;23.406;2023-02-15T06:24:54;42.67;;;22.90;;
3427;SDS011;1727;42.624;23.406;2023-02-15T06:27:21;45.57;;;24.00;;
3427;SDS011;1727;42.624;23.406;2023-02-15T06:29:47;43.13;;;25.60;;
3427;SDS011;1727;42.624;23.406;2023-02-15T06:32:14;40.70;;;24.13;;
3427;SDS011;1727;42.624;23.406;2023-02-15T06:34:41;39.70;;;23.80;;
3427;SDS011;1727;42.624;23.406;2023-02-15T06:37:09;42.07;;;24.37;;
3427;SDS011;1727;42.624;23.406;2023-02-15T06:39:36;36.30;;;22.33;;
3427;SDS011;1727;42.624;23.406;2023-02-15T06:42:08;52.90;;;25.20;;
3427;SDS011;1727;42.624;23.406;2023-02-15T06:44:35;30.10;;;20.00;;
3427;SDS011;1727;42.624;23.406;2023-02-15T06:47:02;45.60;;;24.77;;
3427;SDS011;1727;42.624;23.406;2023-02-15T06:49:29;33.30;;;22.10;;
3427;SDS011;1727;42.624;23.406;2023-02-15T06:51:55;40.07;;;24.57;;
3427;SDS011;1727;42.624;23.406;2023-02-15T06:54:23;42.33;;;22.73;;
3427;SDS011;1727;42.624;23.406;2023-02-15T06:56:50;37.13;;;20.67;;
3427;SDS011;1727;42.624;23.406;2023-02-15T06:59:17;38.80;;;20.97;;
3427;SDS011;1727;42.624;23.406;2023-02-15T07:01:44;30.47;;;17.77;;
3427;SDS011;1727;42.624;23.406;2023-02-15T07:04:10;34.90;;;21.73;;
3427;SDS011;1727;42.624;23.406;2023-02-15T07:06:37;35.90;;;19.60;;
3427;SDS011;1727;42.624;23.406;2023-02-15T07:09:05;29.87;;;19.33;;
3427;SDS011;1727;42.624;23.406;2023-02-15T07:11:33;36.40;;;20.27;;
3427;SDS011;1727;42.624;23.406;2023-02-15T07:14:29;36.20;;;20.70;;
3427;SDS011;1727;42.624;23.406;2023-02-15T07:16:56;33.93;;;21.10;;
3427;SDS011;1727;42.624;23.406;2023-02-15T07:19:23;30.63;;;19.13;;
3427;SDS011;1727;42.624;23.406;2023-02-15T07:21:50;37.40;;;22.37;;
3427;SDS011;1727;42.624;23.406;2023-02-15T07:24:17;33.20;;;19.70;;
3427;SDS011;1727;42.624;23.406;2023-02-15T07:26:45;32.73;;;22.87;;
3427;SDS011;1727;42.624;23.406;2023-02-15T07:29:12;40.00;;;22.00;;
3427;SDS011;1727;42.624;23.406;2023-02-15T07:31:38;37.20;;;22.57;;
3427;SDS011;1727;42.624;23.406;2023-02-15T07:34:05;33.53;;;19.10;;
3427;SDS011;1727;42.624;23.406;2023-02-15T07:36:32;33.10;;;20.10;;
3427;SDS011;1727;42.624;23.406;2023-02-15T07:38:59;29.50;;;18.20;;
3427;SDS011;1727;42.624;23.406;2023-02-15T07:41:26;28.43;;;19.27;;
3427;SDS011;1727;42.624;23.406;2023-02-15T07:43:54;30.67;;;17.53;;
3427;SDS011;1727;42.624;23.406;2023-02-15T07:46:21;26.90;;;18.47;;
3427;SDS011;1727;42.624;23.406;2023-02-15T07:48:47;25.50;;;16.03;;
3427;SDS011;1727;42.624;23.406;2023-02-15T07:51:14;28.93;;;18.87;;
3427;SDS011;1727;42.624;23.406;2023-02-15T07:53:42;26.13;;;18.10;;
3427;SDS011;1727;42.624;23.406;2023-02-15T07:56:09;24.37;;;16.47;;
3427;SDS011;1727;42.624;23.406;2023-02-15T07:58:38;22.70;;;14.20;;
3427;SDS011;1727;42.624;23.406;2023-02-15T08:01:19;29.30;;;16.77;;
3427;SDS011;1727;42.624;23.406;2023-02-15T08:03:47;33.40;;;19.33;;
3427;SDS011;1727;42.624;23.406;2023-02-15T08:06:14;26.60;;;16.57;;
3427;SDS011;1727;42.624;23.406;2023-02-15T08:08:41;26.20;;;16.17;;
3427;SDS011;1727;42.624;23.406;2023-02-15T08:11:14;27.60;;;14.70;;
3427;SDS011;1727;42.624;23.406;2023-02-15T08:14:03;31.60;;;18.70;;
3427;SDS011;1727;42.624;23.406;2023-02-15T08:16:33;31.70;;;19.20;;
3427;SDS011;1727;42.624;23.406;2023-02-15T08:19:03;38.70;;;23.90;;
3427;SDS011;1727;42.624;23.406;2023-02-15T08:21:31;49.70;;;28.00;;
3427;SDS011;1727;42.624;23.406;2023-02-15T08:23:59;32.10;;;20.53;;
3427;SDS011;1727;42.624;23.406;2023-02-15T08:26:26;37.07;;;20.20;;
3427;SDS011;1727;42.624;23.406;2023-02-15T08:28:54;33.73;;;19.50;;
3427;SDS011;1727;42.624;23.406;2023-02-15T08:31:21;32.97;;;21.07;;
3427;SDS011;1727;42.624;23.406;2023-02-15T08:33:50;27.47;;;17.30;;
3427;SDS011;1727;42.624;23.406;2023-02-15T08:36:19;28.50;;;17.13;;
3427;SDS011;1727;42.624;23.406;2023-02-15T08:38:47;31.90;;;19.67;;
3427;SDS011;1727;42.624;23.406;2023-02-15T08:41:15;36.67;;;21.73;;
3427;SDS011;1727;42.624;23.406;2023-02-15T08:43:44;31.87;;;19.53;;
3427;SDS011;1727;42.624;23.406;2023-02-15T08:46:18;37.17;;;20.03;;
3427;SDS011;1727;42.624;23.406;2023-02-15T08:48:46;28.90;;;18.00;;
3427;SDS011;1727;42.624;23.406;2023-02-15T08:51:15;30.87;;;18.57;;
3427;SDS011;1727;42.624;23.406;2023-02-15T08:53:43;32.80;;;18.10;;
3427;SDS011;1727;42.624;23.406;2023-02-15T08:56:11;34.30;;;20.20;;
3427;SDS011;1727;42.624;23.406;2023-02-15T08:58:38;31.80;;;18.60;;
3427;SDS011;1727;42.624;23.406;2023-02-15T09:01:09;30.30;;;17.97;;
3427;SDS011;1727;42.624;23.406;2023-02-15T09:03:36;30.50;;;18.50;;
3427;SDS011;1727;42.624;23.406;2023-02-15T09:06:04;31.50;;;18.97;;
3427;SDS011;1727;42.624;23.406;2023-02-15T09:08:35;24.40;;;15.57;;
3427;SDS011;1727;42.624;23.406;2023-02-15T09:11:05;32.80;;;19.00;;
3427;SDS011;1727;42.624;23.406;2023-02-15T09:13:34;26.17;;;18.93;;
3427;SDS011;1727;42.624;23.406;2023-02-15T09:16:01;39.00;;;20.43;;
3427;SDS011;1727;42.624;23.406;2023-02-15T09:18:30;32.17;;;17.30;;
3427;SDS011;1727;42.624;23.406;2023-02-15T09:21:03;29.43;;;16.93;;
3427;SDS011;1727;42.624;23.406;2023-02-15T09:23:30;25.90;;;17.63;;
3427;SDS011;1727;42.624;23.406;2023-02-15T09:26:02;29.63;;;19.93;;
3427;SDS011;1727;42.624;23.406;2023-02-15T09:28:30;29.30;;;18.20;;
3427;SDS011;1727;42.624;23.406;2023-02-15T09:31:03;32.63;;;17.10;;
3427;SDS011;1727;42.624;23.406;2023-02-15T09:33:35;33.73;;;18.90;;
3427;SDS011;1727;42.624;23.406;2023-02-15T09:36:02;30.70;;;19.13;;
3427;SDS011;1727;42.624;23.406;2023-02-15T09:38:30;29.27;;;16.93;;
3427;SDS011;1727;42.624;23.406;2023-02-15T09:41:00;27.17;;;18.27;;
3427;SDS011;1727;42.624;23.406;2023-02-15T09:43:38;30.47;;;17.20;;
3427;SDS011;1727;42.624;23.406;2023-02-15T09:46:27;28.60;;;17.20;;
3427;SDS011;1727;42.624;23.406;2023-02-15T09:49:08;28.57;;;16.60;;
3427;SDS011;1727;42.624;23.406;2023-02-15T09:51:51;32.40;;;17.73;;
3427;SDS011;1727;42.624;23.406;2023-02-15T09:54:42;24.20;;;15.27;;
3427;SDS011;1727;42.624;23.406;2023-02-15T09:57:25;26.13;;;15.93;;
3427;SDS011;1727;42.624;23.406;2023-02-15T10:00:01;25.87;;;17.10;;
3427;SDS011;1727;42.624;23.406;2023-02-15T10:02:38;26.80;;;17.10;;
3427;SDS011;1727;42.624;23.406;2023-02-15T10:05:19;28.90;;;17.30;;
3427;SDS011;1727;42.624;23.406;2023-02-15T10:08:07;34.37;;;20.27;;
3427;SDS011;1727;42.624;23.406;2023-02-15T10:10:49;38.30;;;19.00;;
3427;SDS011;1727;42.624;23.406;2023-02-15T10:13:52;24.40;;;16.60;;
3427;SDS011;1727;42.624;23.406;2023-02-15T10:16:29;26.60;;;16.90;;
3427;SDS011;1727;42.624;23.406;2023-02-15T10:19:04;33.27;;;18.57;;
3427;SDS011;1727;42.624;23.406;2023-02-15T10:21:43;32.80;;;16.83;;
3427;SDS011;1727;42.624;23.406;2023-02-15T10:24:26;35.73;;;20.90;;
3427;SDS011;1727;42.624;23.406;2023-02-15T10:27:07;25.07;;;15.80;;
3427;SDS011;1727;42.624;23.406;2023-02-15T10:29:41;24.80;;;15.80;;
3427;SDS011;1727;42.624;23.406;2023-02-15T10:32:18;38.80;;;20.27;;
3427;SDS011;1727;42.624;23.406;2023-02-15T10:34:50;41.70;;;22.60;;
3427;SDS011;1727;42.624;23.406;2023-02-15T10:40:26;34.50;;;21.50;;
3427;SDS011;1727;42.624;23.406;2023-02-15T10:43:04;28.00;;;18.90;;
3427;SDS011;1727;42.624;23.406;2023-02-15T10:45:43;27.33;;;18.10;;
3427;SDS011;1727;42.624;23.406;2023-02-15T10:48:25;32.37;;;17.80;;
3427;SDS011;1727;42.624;23.406;2023-02-15T10:51:17;25.97;;;19.17;;
3427;SDS011;1727;42.624;23.406;2023-02-15T10:53:58;32.10;;;18.23;;
3427;SDS011;1727;42.624;23.406;2023-02-15T10:56:42;35.63;;;21.17;;
3427;SDS011;1727;42.624;23.406;2023-02-15T10:59:19;36.03;;;18.50;;
3427;SDS011;1727;42.624;23.406;2023-02-15T11:02:01;30.43;;;19.33;;
3427;SDS011;1727;42.624;23.406;2023-02-15T11:04:40;27.03;;;17.40;;
3427;SDS011;1727;42.624;23.406;2023-02-15T11:07:15;22.20;;;16.70;;
3427;SDS011;1727;42.624;23.406;2023-02-15T11:09:46;28.97;;;19.57;;
3427;SDS011;1727;42.624;23.406;2023-02-15T11:12:17;27.00;;;17.23;;
3427;SDS011;1727;42.624;23.406;2023-02-15T11:14:49;34.30;;;21.50;;
3427;SDS011;1727;42.624;23.406;2023-02-15T11:17:24;31.43;;;18.70;;
3427;SDS011;1727;42.624;23.406;2023-02-15T11:19:58;27.27;;;18.40;;
3427;SDS011;1727;42.624;23.406;2023-02-15T11:22:30;29.13;;;19.00;;
3427;SDS011;1727;42.624;23.406;2023-02-15T11:24:59;34.00;;;20.00;;
3427;SDS011;1727;42.624;23.406;2023-02-15T11:27:29;29.70;;;17.90;;
3427;SDS011;1727;42.624;23.406;2023-02-15T11:29:59;26.57;;;18.87;;
3427;SDS011;1727;42.624;23.406;2023-02-15T11:32:30;27.07;;;19.10;;
3427;SDS011;1727;42.624;23.406;2023-02-15T11:35:00;33.47;;;20.07;;
3427;SDS011;1727;42.624;23.406;2023-02-15T11:37:32;36.53;;;21.80;;
3427;SDS011;1727;42.624;23.406;2023-02-15T11:40:03;29.67;;;18.43;;
3427;SDS011;1727;42.624;23.406;2023-02-15T11:42:43;27.53;;;17.60;;
3427;SDS011;1727;42.624;23.406;2023-02-15T11:45:16;33.13;;;19.07;;
3427;SDS011;1727;42.624;23.406;2023-02-15T11:47:49;39.00;;;21.70;;
3427;SDS011;1727;42.624;23.406;2023-02-15T11:50:19;34.63;;;21.10;;
3427;SDS011;1727;42.624;23.406;2023-02-15T11:52:49;34.53;;;21.20;;
3427;SDS011;1727;42.624;23.406;2023-02-15T11:55:18;37.53;;;21.57;;
3427;SDS011;1727;42.624;23.406;2023-02-15T11:57:50;33.83;;;20.07;;
3427;SDS011;1727;42.624;23.406;2023-02-15T12:00:24;32.43;;;20.47;;
3427;SDS011;1727;42.624;23.406;2023-02-15T12:03:02;40.70;;;21.40;;
3427;SDS011;1727;42.624;23.406;2023-02-15T12:05:39;44.30;;;21.83;;
3427;SDS011;1727;42.624;23.406;2023-02-15T12:08:18;32.77;;;20.90;;
3427;SDS011;1727;42.624;23.406;2023-02-15T12:10:52;30.87;;;21.47;;
3427;SDS011;1727;42.624;23.406;2023-02-15T12:13:24;36.67;;;23.17;;
3427;SDS011;1727;42.624;23.406;2023-02-15T12:15:52;33.30;;;21.10;;
3427;SDS011;1727;42.624;23.406;2023-02-15T12:18:31;37.53;;;22.47;;
3427;SDS011;1727;42.624;23.406;2023-02-15T12:21:02;32.47;;;19.80;;
3427;SDS011;1727;42.624;23.406;2023-02-15T12:23:32;31.87;;;19.67;;
3427;SDS011;1727;42.624;23.406;2023-02-15T12:26:00;32.53;;;20.10;;
3427;SDS011;1727;42.624;23.406;2023-02-15T12:28:30;38.17;;;21.30;;
3427;SDS011;1727;42.624;23.406;2023-02-15T12:30:59;35.63;;;19.83;;
3427;SDS011;1727;42.624;23.406;2023-02-15T12:33:30;34.37;;;20.20;;
3427;SDS011;1727;42.624;23.406;2023-02-15T12:36:01;32.53;;;20.60;;
3427;SDS011;1727;42.624;23.406;2023-02-15T12:38:35;36.53;;;22.13;;
3427;SDS011;1727;42.624;23.406;2023-02-15T12:41:03;39.20;;;26.60;;
3427;SDS011;1727;42.624;23.406;2023-02-15T12:43:32;31.63;;;20.70;;
3427;SDS011;1727;42.624;23.406;2023-02-15T12:46:20;32.67;;;23.47;;
3427;SDS011;1727;42.624;23.406;2023-02-15T12:48:55;36.87;;;22.87;;
3427;SDS011;1727;42.624;23.406;2023-02-15T12:51:42;35.87;;;23.63;;
3427;SDS011;1727;42.624;23.406;2023-02-15T12:54:15;35.27;;;21.13;;
3427;SDS011;1727;42.624;23.406;2023-02-15T12:56:43;36.03;;;21.60;;
3427;SDS011;1727;42.624;23.406;2023-02-15T12:59:12;27.63;;;19.63;;
3427;SDS011;1727;42.624;23.406;2023-02-15T13:01:40;34.80;;;22.73;;
3427;SDS011;1727;42.624;23.406;2023-02-15T13:04:15;36.47;;;21.10;;
3427;SDS011;1727;42.624;23.406;2023-02-15T13:06:49;37.23;;;20.03;;
3427;SDS011;1727;42.624;23.406;2023-02-15T13:09:19;38.20;;;19.50;;
3427;SDS011;1727;42.624;23.406;2023-02-15T13:11:50;36.63;;;21.40;;
3427;SDS011;1727;42.624;23.406;2023-02-15T13:14:17;43.67;;;23.83;;
3427;SDS011;1727;42.624;23.406;2023-02-15T13:16:46;42.67;;;23.63;;
3427;SDS011;1727;42.624;23.406;2023-02-15T13:19:16;31.60;;;22.03;;
3427;SDS011;1727;42.624;23.406;2023-02-15T13:21:46;35.30;;;21.17;;
3427;SDS011;1727;42.624;23.406;2023-02-15T13:24:16;30.03;;;21.50;;
3427;SDS011;1727;42.624;23.406;2023-02-15T13:26:47;33.67;;;20.97;;
3427;SDS011;1727;42.624;23.406;2023-02-15T13:29:16;34.73;;;22.27;;
3427;SDS011;1727;42.624;23.406;2023-02-15T13:31:47;31.97;;;21.77;;
3427;SDS011;1727;42.624;23.406;2023-02-15T13:34:17;28.70;;;18.30;;
3427;SDS011;1727;42.624;23.406;2023-02-15T13:36:49;33.43;;;20.43;;
3427;SDS011;1727;42.624;23.406;2023-02-15T13:39:23;34.07;;;19.17;;
3427;SDS011;1727;42.624;23.406;2023-02-15T13:41:56;32.13;;;20.60;;
3427;SDS011;1727;42.624;23.406;2023-02-15T13:44:32;41.23;;;23.10;;
3427;SDS011;1727;42.624;23.406;2023-02-15T13:47:23;35.30;;;21.70;;
3427;SDS011;1727;42.624;23.406;2023-02-15T13:50:03;29.40;;;19.37;;
3427;SDS011;1727;42.624;23.406;2023-02-15T13:52:45;28.40;;;17.93;;
3427;SDS011;1727;42.624;23.406;2023-02-15T13:55:26;35.67;;;24.23;;
3427;SDS011;1727;42.624;23.406;2023-02-15T13:58:17;35.57;;;22.27;;
3427;SDS011;1727;42.624;23.406;2023-02-15T14:01:07;35.33;;;24.13;;
3427;SDS011;1727;42.624;23.406;2023-02-15T14:03:56;35.50;;;22.57;;
3427;SDS011;1727;42.624;23.406;2023-02-15T14:09:38;34.70;;;21.77;;
3427;SDS011;1727;42.624;23.406;2023-02-15T14:12:19;44.53;;;25.83;;
3427;SDS011;1727;42.624;23.406;2023-02-15T14:15:02;42.67;;;23.90;;
3427;SDS011;1727;42.624;23.406;2023-02-15T14:17:51;45.13;;;24.97;;
3427;SDS011;1727;42.624;23.406;2023-02-15T14:20:28;50.57;;;28.17;;
3427;SDS011;1727;42.624;23.406;2023-02-15T14:23:07;33.90;;;21.87;;
3427;SDS011;1727;42.624;23.406;2023-02-15T14:25:43;39.33;;;24.80;;
3427;SDS011;1727;42.624;23.406;2023-02-15T14:28:16;50.43;;;28.10;;
3427;SDS011;1727;42.624;23.406;2023-02-15T14:30:53;49.93;;;28.20;;
3427;SDS011;1727;42.624;23.406;2023-02-15T14:33:28;46.37;;;27.97;;
3427;SDS011;1727;42.624;23.406;2023-02-15T14:35:59;43.23;;;26.50;;
3427;SDS011;1727;42.624;23.406;2023-02-15T14:38:30;46.97;;;25.57;;
3427;SDS011;1727;42.624;23.406;2023-02-15T14:41:11;48.83;;;27.90;;
3427;SDS011;1727;42.624;23.406;2023-02-15T14:43:47;51.90;;;28.17;;
3427;SDS011;1727;42.624;23.406;2023-02-15T14:46:25;53.07;;;29.97;;
3427;SDS011;1727;42.624;23.406;2023-02-15T14:48:58;32.90;;;21.17;;
3427;SDS011;1727;42.624;23.406;2023-02-15T14:57:23;50.43;;;26.50;;
3427;SDS011;1727;42.624;23.406;2023-02-15T15:00:00;45.70;;;26.97;;
3427;SDS011;1727;42.624;23.406;2023-02-15T15:02:40;39.40;;;22.30;;
3427;SDS011;1727;42.624;23.406;2023-02-15T15:05:11;54.20;;;26.10;;
3427;SDS011;1727;42.624;23.406;2023-02-15T15:07:45;43.80;;;27.00;;
3427;SDS011;1727;42.624;23.406;2023-02-15T15:16:31;45.73;;;29.30;;
3427;SDS011;1727;42.624;23.406;2023-02-15T15:19:56;51.43;;;29.90;;
3427;SDS011;1727;42.624;23.406;2023-02-15T15:22:29;49.90;;;28.07;;
3427;SDS011;1727;42.624;23.406;2023-02-15T15:24:57;44.07;;;27.87;;
3427;SDS011;1727;42.624;23.406;2023-02-15T15:27:39;40.93;;;25.83;;
3427;SDS011;1727;42.624;23.406;2023-02-15T15:33:25;54.80;;;28.30;;